sensor_id;sensor_type;location;lat;lon;timestamp;temperature;humidity
18260;DHT22;9256;52.236;5.712;2023-03-07T00:02:16;4.40;99.90
18260;DHT22;9256;52.236;5.712;2023-03-07T00:04:44;4.40;99.90
18260;DHT22;9256;52.236;5.712;2023-03-07T00:07:11;4.40;99.90
18260;DHT22;9256;52.236;5.712;2023-03-07T00:09:38;4.40;99.90
18260;DHT22;9256;52.236;5.712;2023-03-07T00:12:07;4.40;99.90
18260;DHT22;9256;52.236;5.712;2023-03-07T00:14:35;4.30;99.90
18260;DHT22;9256;52.236;5.712;2023-03-07T00:17:02;4.30;99.90
18260;DHT22;9256;52.236;5.712;2023-03-07T00:19:29;4.30;99.90
18260;DHT22;9256;52.236;5.712;2023-03-07T00:21:55;4.40;99.90
18260;DHT22;9256;52.236;5.712;2023-03-07T00:24:22;4.30;99.90
18260;DHT22;9256;52.236;5.712;2023-03-07T00:26:49;4.40;99.90
18260;DHT22;9256;52.236;5.712;2023-03-07T00:29:18;4.40;99.90
18260;DHT22;9256;52.236;5.712;2023-03-07T00:31:44;4.40;99.90
18260;DHT22;9256;52.236;5.712;2023-03-07T00:34:11;4.40;99.90
18260;DHT22;9256;52.236;5.712;2023-03-07T00:36:38;4.50;99.90
18260;DHT22;9256;52.236;5.712;2023-03-07T00:39:05;4.50;99.90
18260;DHT22;9256;52.236;5.712;2023-03-07T00:41:33;4.50;99.90
18260;DHT22;9256;52.236;5.712;2023-03-07T00:43:59;4.50;99.90
18260;DHT22;9256;52.236;5.712;2023-03-07T00:46:28;4.50;99.90
18260;DHT22;9256;52.236;5.712;2023-03-07T00:48:55;4.60;99.90
18260;DHT22;9256;52.236;5.712;2023-03-07T00:51:23;4.50;99.90
18260;DHT22;9256;52.236;5.712;2023-03-07T00:53:50;4.50;99.90
18260;DHT22;9256;52.236;5.712;2023-03-07T00:56:19;4.50;99.90
18260;DHT22;9256;52.236;5.712;2023-03-07T00:58:46;4.50;99.90
18260;DHT22;9256;52.236;5.712;2023-03-07T01:01:15;4.40;99.90
18260;DHT22;9256;52.236;5.712;2023-03-07T01:03:43;4.40;99.90
18260;DHT22;9256;52.236;5.712;2023-03-07T01:06:14;4.50;99.90
18260;DHT22;9256;52.236;5.712;2023-03-07T01:08:41;4.50;99.90
18260;DHT22;9256;52.236;5.712;2023-03-07T01:11:08;4.50;99.90
18260;DHT22;9256;52.236;5.712;2023-03-07T01:13:38;4.50;99.90
18260;DHT22;9256;52.236;5.712;2023-03-07T01:16:07;4.50;99.90
18260;DHT22;9256;52.236;5.712;2023-03-07T01:18:34;4.50;99.90
18260;DHT22;9256;52.236;5.712;2023-03-07T01:21:10;4.50;99.90
18260;DHT22;9256;52.236;5.712;2023-03-07T01:23:37;4.40;99.90
18260;DHT22;9256;52.236;5.712;2023-03-07T01:26:04;4.40;99.90
18260;DHT22;9256;52.236;5.712;2023-03-07T01:28:31;4.40;99.90
18260;DHT22;9256;52.236;5.712;2023-03-07T01:30:58;4.30;99.90
18260;DHT22;9256;52.236;5.712;2023-03-07T01:33:25;4.30;99.90
18260;DHT22;9256;52.236;5.712;2023-03-07T01:35:52;4.30;99.90
18260;DHT22;9256;52.236;5.712;2023-03-07T01:38:20;4.30;99.90
18260;DHT22;9256;52.236;5.712;2023-03-07T01:40:47;4.20;99.90
18260;DHT22;9256;52.236;5.712;2023-03-07T01:43:22;4.20;99.90
18260;DHT22;9256;52.236;5.712;2023-03-07T01:46:29;4.10;99.90
18260;DHT22;9256;52.236;5.712;2023-03-07T01:48:59;4.00;99.90
18260;DHT22;9256;52.236;5.712;2023-03-07T01:51:27;3.90;99.90
18260;DHT22;9256;52.236;5.712;2023-03-07T01:53:57;3.90;99.90
18260;DHT22;9256;52.236;5.712;2023-03-07T01:56:27;3.90;99.90
18260;DHT22;9256;52.236;5.712;2023-03-07T01:58:54;3.90;99.90
18260;DHT22;9256;52.236;5.712;2023-03-07T02:01:22;4.00;99.90
18260;DHT22;9256;52.236;5.712;2023-03-07T02:03:52;4.00;99.90
18260;DHT22;9256;52.236;5.712;2023-03-07T02:06:20;3.90;99.90
18260;DHT22;9256;52.236;5.712;2023-03-07T02:08:48;3.90;99.90
18260;DHT22;9256;52.236;5.712;2023-03-07T02:11:18;3.90;99.90
18260;DHT22;9256;52.236;5.712;2023-03-07T02:13:44;3.90;99.90
18260;DHT22;9256;52.236;5.712;2023-03-07T02:16:12;3.90;99.90
18260;DHT22;9256;52.236;5.712;2023-03-07T02:18:42;3.90;99.90
18260;DHT22;9256;52.236;5.712;2023-03-07T02:21:18;3.80;99.90
18260;DHT22;9256;52.236;5.712;2023-03-07T02:23:52;3.80;99.90
18260;DHT22;9256;52.236;5.712;2023-03-07T02:26:35;3.80;99.90
18260;DHT22;9256;52.236;5.712;2023-03-07T02:29:02;3.90;99.90
18260;DHT22;9256;52.236;5.712;2023-03-07T02:31:29;3.90;99.90
18260;DHT22;9256;52.236;5.712;2023-03-07T02:33:56;3.80;99.90
18260;DHT22;9256;52.236;5.712;2023-03-07T02:36:27;3.80;99.90
18260;DHT22;9256;52.236;5.712;2023-03-07T02:38:57;3.80;99.90
18260;DHT22;9256;52.236;5.712;2023-03-07T02:41:28;3.80;99.90
18260;DHT22;9256;52.236;5.712;2023-03-07T02:43:57;3.80;99.90
18260;DHT22;9256;52.236;5.712;2023-03-07T02:46:26;3.90;99.90
18260;DHT22;9256;52.236;5.712;2023-03-07T02:48:53;3.80;99.90
18260;DHT22;9256;52.236;5.712;2023-03-07T02:51:20;3.80;99.90
18260;DHT22;9256;52.236;5.712;2023-03-07T02:53:47;3.80;99.90
18260;DHT22;9256;52.236;5.712;2023-03-07T02:56:14;3.70;99.90
18260;DHT22;9256;52.236;5.712;2023-03-07T02:58:43;3.70;99.90
18260;DHT22;9256;52.236;5.712;2023-03-07T03:01:11;3.70;99.90
18260;DHT22;9256;52.236;5.712;2023-03-07T03:03:38;3.70;99.90
18260;DHT22;9256;52.236;5.712;2023-03-07T03:06:05;3.70;99.90
18260;DHT22;9256;52.236;5.712;2023-03-07T03:08:32;3.80;99.90
18260;DHT22;9256;52.236;5.712;2023-03-07T03:10:59;3.80;99.90
18260;DHT22;9256;52.236;5.712;2023-03-07T03:13:26;3.80;99.90
18260;DHT22;9256;52.236;5.712;2023-03-07T03:15:54;3.80;99.90
18260;DHT22;9256;52.236;5.712;2023-03-07T03:18:24;3.70;99.90
18260;DHT22;9256;52.236;5.712;2023-03-07T03:20:52;3.80;99.90
18260;DHT22;9256;52.236;5.712;2023-03-07T03:23:19;3.70;99.90
18260;DHT22;9256;52.236;5.712;2023-03-07T03:25:56;3.70;99.90
18260;DHT22;9256;52.236;5.712;2023-03-07T03:28:23;3.70;99.90
18260;DHT22;9256;52.236;5.712;2023-03-07T03:30:56;3.80;99.90
18260;DHT22;9256;52.236;5.712;2023-03-07T03:33:26;3.80;99.90
18260;DHT22;9256;52.236;5.712;2023-03-07T03:35:53;3.80;99.90
18260;DHT22;9256;52.236;5.712;2023-03-07T03:38:24;3.80;99.90
18260;DHT22;9256;52.236;5.712;2023-03-07T03:40:51;3.70;99.90
18260;DHT22;9256;52.236;5.712;2023-03-07T03:43:18;3.70;99.90
18260;DHT22;9256;52.236;5.712;2023-03-07T03:45:53;3.70;99.90
18260;DHT22;9256;52.236;5.712;2023-03-07T03:48:20;3.70;99.90
18260;DHT22;9256;52.236;5.712;2023-03-07T03:50:48;3.70;99.90
18260;DHT22;9256;52.236;5.712;2023-03-07T03:53:16;3.80;99.90
18260;DHT22;9256;52.236;5.712;2023-03-07T03:55:43;3.80;99.90
18260;DHT22;9256;52.236;5.712;2023-03-07T03:58:10;3.70;99.90
18260;DHT22;9256;52.236;5.712;2023-03-07T04:00:36;3.70;99.90
18260;DHT22;9256;52.236;5.712;2023-03-07T04:03:03;3.80;99.90
18260;DHT22;9256;52.236;5.712;2023-03-07T04:05:34;3.70;99.90
18260;DHT22;9256;52.236;5.712;2023-03-07T04:08:03;3.70;99.90
18260;DHT22;9256;52.236;5.712;2023-03-07T04:10:30;3.80;99.90
18260;DHT22;9256;52.236;5.712;2023-03-07T04:12:58;3.70;99.90
18260;DHT22;9256;52.236;5.712;2023-03-07T04:15:25;3.80;99.90
18260;DHT22;9256;52.236;5.712;2023-03-07T04:17:52;3.90;99.90
18260;DHT22;9256;52.236;5.712;2023-03-07T04:20:19;3.80;99.90
18260;DHT22;9256;52.236;5.712;2023-03-07T04:22:46;3.80;99.90
18260;DHT22;9256;52.236;5.712;2023-03-07T04:25:14;3.80;99.90
18260;DHT22;9256;52.236;5.712;2023-03-07T04:27:41;3.80;99.90
18260;DHT22;9256;52.236;5.712;2023-03-07T04:30:09;3.70;99.90
18260;DHT22;9256;52.236;5.712;2023-03-07T04:32:36;3.80;99.90
18260;DHT22;9256;52.236;5.712;2023-03-07T04:35:04;3.80;99.90
18260;DHT22;9256;52.236;5.712;2023-03-07T04:37:31;3.70;99.90
18260;DHT22;9256;52.236;5.712;2023-03-07T04:39:58;3.70;99.90
18260;DHT22;9256;52.236;5.712;2023-03-07T04:42:26;3.70;99.90
18260;DHT22;9256;52.236;5.712;2023-03-07T04:44:53;3.70;99.90
18260;DHT22;9256;52.236;5.712;2023-03-07T04:47:20;3.70;99.90
18260;DHT22;9256;52.236;5.712;2023-03-07T04:49:47;3.70;99.90
18260;DHT22;9256;52.236;5.712;2023-03-07T04:52:14;3.60;99.90
18260;DHT22;9256;52.236;5.712;2023-03-07T04:54:43;3.60;99.90
18260;DHT22;9256;52.236;5.712;2023-03-07T04:57:10;3.60;99.90
18260;DHT22;9256;52.236;5.712;2023-03-07T04:59:38;3.60;99.90
18260;DHT22;9256;52.236;5.712;2023-03-07T05:02:05;3.70;99.90
18260;DHT22;9256;52.236;5.712;2023-03-07T05:04:32;3.70;99.90
18260;DHT22;9256;52.236;5.712;2023-03-07T05:06:59;3.60;99.90
18260;DHT22;9256;52.236;5.712;2023-03-07T05:09:26;3.70;99.90
18260;DHT22;9256;52.236;5.712;2023-03-07T05:11:53;3.60;99.90
18260;DHT22;9256;52.236;5.712;2023-03-07T05:14:20;3.60;99.90
18260;DHT22;9256;52.236;5.712;2023-03-07T05:16:49;3.60;99.90
18260;DHT22;9256;52.236;5.712;2023-03-07T05:19:16;3.60;99.90
18260;DHT22;9256;52.236;5.712;2023-03-07T05:21:42;3.60;99.90
18260;DHT22;9256;52.236;5.712;2023-03-07T05:24:10;3.50;99.90
18260;DHT22;9256;52.236;5.712;2023-03-07T05:26:37;3.40;99.90
18260;DHT22;9256;52.236;5.712;2023-03-07T05:29:03;3.40;99.90
18260;DHT22;9256;52.236;5.712;2023-03-07T05:31:30;3.40;99.90
18260;DHT22;9256;52.236;5.712;2023-03-07T05:33:59;3.30;99.90
18260;DHT22;9256;52.236;5.712;2023-03-07T05:36:26;3.30;99.90
18260;DHT22;9256;52.236;5.712;2023-03-07T05:38:53;3.30;99.90
18260;DHT22;9256;52.236;5.712;2023-03-07T05:41:21;3.30;99.90
18260;DHT22;9256;52.236;5.712;2023-03-07T05:43:48;3.20;99.90
18260;DHT22;9256;52.236;5.712;2023-03-07T05:46:14;3.30;99.90
18260;DHT22;9256;52.236;5.712;2023-03-07T05:48:41;3.30;99.90
18260;DHT22;9256;52.236;5.712;2023-03-07T05:51:12;3.20;99.90
18260;DHT22;9256;52.236;5.712;2023-03-07T05:53:38;3.10;99.90
18260;DHT22;9256;52.236;5.712;2023-03-07T05:56:06;3.20;99.90
18260;DHT22;9256;52.236;5.712;2023-03-07T05:58:33;3.10;99.90
18260;DHT22;9256;52.236;5.712;2023-03-07T06:01:01;3.10;99.90
18260;DHT22;9256;52.236;5.712;2023-03-07T06:03:28;3.00;99.90
18260;DHT22;9256;52.236;5.712;2023-03-07T06:05:55;3.10;99.90
18260;DHT22;9256;52.236;5.712;2023-03-07T06:08:23;3.10;99.90
18260;DHT22;9256;52.236;5.712;2023-03-07T06:10:51;3.10;99.90
18260;DHT22;9256;52.236;5.712;2023-03-07T06:13:20;3.10;99.90
18260;DHT22;9256;52.236;5.712;2023-03-07T06:15:48;3.20;99.90
18260;DHT22;9256;52.236;5.712;2023-03-07T06:18:16;3.10;99.90
18260;DHT22;9256;52.236;5.712;2023-03-07T06:20:43;3.10;99.90
18260;DHT22;9256;52.236;5.712;2023-03-07T06:23:10;3.00;99.90
18260;DHT22;9256;52.236;5.712;2023-03-07T06:25:46;3.00;99.90
18260;DHT22;9256;52.236;5.712;2023-03-07T06:28:13;2.90;99.90
18260;DHT22;9256;52.236;5.712;2023-03-07T06:30:43;2.90;99.90
18260;DHT22;9256;52.236;5.712;2023-03-07T06:33:11;2.80;99.90
18260;DHT22;9256;52.236;5.712;2023-03-07T06:35:38;2.60;99.90
18260;DHT22;9256;52.236;5.712;2023-03-07T06:38:06;2.50;99.90
18260;DHT22;9256;52.236;5.712;2023-03-07T06:40:33;2.30;99.90
18260;DHT22;9256;52.236;5.712;2023-03-07T06:43:01;2.40;99.90
18260;DHT22;9256;52.236;5.712;2023-03-07T06:45:31;2.30;99.90
18260;DHT22;9256;52.236;5.712;2023-03-07T06:47:58;2.20;99.90
18260;DHT22;9256;52.236;5.712;2023-03-07T06:50:25;2.20;99.90
18260;DHT22;9256;52.236;5.712;2023-03-07T06:52:52;2.10;99.90
18260;DHT22;9256;52.236;5.712;2023-03-07T06:55:19;2.10;99.90
18260;DHT22;9256;52.236;5.712;2023-03-07T06:57:48;2.10;99.90
18260;DHT22;9256;52.236;5.712;2023-03-07T07:00:20;2.00;99.90
18260;DHT22;9256;52.236;5.712;2023-03-07T07:02:47;2.10;99.90
18260;DHT22;9256;52.236;5.712;2023-03-07T07:05:14;2.10;99.90
18260;DHT22;9256;52.236;5.712;2023-03-07T07:07:41;2.00;99.90
18260;DHT22;9256;52.236;5.712;2023-03-07T07:10:09;2.00;99.90
18260;DHT22;9256;52.236;5.712;2023-03-07T07:12:37;2.00;99.90
18260;DHT22;9256;52.236;5.712;2023-03-07T07:15:04;2.00;99.90
18260;DHT22;9256;52.236;5.712;2023-03-07T07:17:35;2.00;99.90
18260;DHT22;9256;52.236;5.712;2023-03-07T07:20:04;2.00;99.90
18260;DHT22;9256;52.236;5.712;2023-03-07T07:22:32;2.00;99.90
18260;DHT22;9256;52.236;5.712;2023-03-07T07:24:59;2.10;99.90
18260;DHT22;9256;52.236;5.712;2023-03-07T07:27:26;2.20;99.90
18260;DHT22;9256;52.236;5.712;2023-03-07T07:29:54;2.20;99.90
18260;DHT22;9256;52.236;5.712;2023-03-07T07:32:21;2.20;99.90
18260;DHT22;9256;52.236;5.712;2023-03-07T07:34:49;2.20;99.90
18260;DHT22;9256;52.236;5.712;2023-03-07T07:37:16;2.20;99.90
18260;DHT22;9256;52.236;5.712;2023-03-07T07:39:43;2.20;99.90
18260;DHT22;9256;52.236;5.712;2023-03-07T07:42:10;2.10;99.90
18260;DHT22;9256;52.236;5.712;2023-03-07T07:44:37;2.30;99.90
18260;DHT22;9256;52.236;5.712;2023-03-07T07:47:04;2.30;99.90
18260;DHT22;9256;52.236;5.712;2023-03-07T07:49:31;2.30;99.90
18260;DHT22;9256;52.236;5.712;2023-03-07T07:51:59;2.30;99.90
18260;DHT22;9256;52.236;5.712;2023-03-07T07:54:26;2.30;99.90
18260;DHT22;9256;52.236;5.712;2023-03-07T07:56:53;2.30;99.90
18260;DHT22;9256;52.236;5.712;2023-03-07T07:59:22;2.30;99.90
18260;DHT22;9256;52.236;5.712;2023-03-07T08:01:49;2.30;99.90
18260;DHT22;9256;52.236;5.712;2023-03-07T08:04:16;2.30;99.90
18260;DHT22;9256;52.236;5.712;2023-03-07T08:06:43;2.30;99.90
18260;DHT22;9256;52.236;5.712;2023-03-07T08:09:11;2.50;99.90
18260;DHT22;9256;52.236;5.712;2023-03-07T08:11:39;2.50;99.90
18260;DHT22;9256;52.236;5.712;2023-03-07T08:14:07;2.40;99.90
18260;DHT22;9256;52.236;5.712;2023-03-07T08:16:34;2.40;99.90
18260;DHT22;9256;52.236;5.712;2023-03-07T08:19:01;2.40;99.90
18260;DHT22;9256;52.236;5.712;2023-03-07T08:21:28;2.50;99.90
18260;DHT22;9256;52.236;5.712;2023-03-07T08:23:55;2.50;99.90
18260;DHT22;9256;52.236;5.712;2023-03-07T08:26:24;2.50;99.90
18260;DHT22;9256;52.236;5.712;2023-03-07T08:28:51;2.60;99.90
18260;DHT22;9256;52.236;5.712;2023-03-07T08:31:20;2.60;99.90
18260;DHT22;9256;52.236;5.712;2023-03-07T08:33:48;2.80;99.90
18260;DHT22;9256;52.236;5.712;2023-03-07T08:36:18;2.70;99.90
18260;DHT22;9256;52.236;5.712;2023-03-07T08:38:47;2.70;99.90
18260;DHT22;9256;52.236;5.712;2023-03-07T08:41:17;2.80;99.90
18260;DHT22;9256;52.236;5.712;2023-03-07T08:43:46;2.80;99.90
18260;DHT22;9256;52.236;5.712;2023-03-07T08:46:13;2.80;99.90
18260;DHT22;9256;52.236;5.712;2023-03-07T08:48:40;2.70;99.90
18260;DHT22;9256;52.236;5.712;2023-03-07T08:51:12;2.80;99.90
18260;DHT22;9256;52.236;5.712;2023-03-07T08:53:40;2.80;99.90
18260;DHT22;9256;52.236;5.712;2023-03-07T08:56:10;2.80;99.90
18260;DHT22;9256;52.236;5.712;2023-03-07T08:58:37;3.00;99.90
18260;DHT22;9256;52.236;5.712;2023-03-07T09:01:07;3.00;99.90
18260;DHT22;9256;52.236;5.712;2023-03-07T09:03:35;3.10;99.90
18260;DHT22;9256;52.236;5.712;2023-03-07T09:06:03;3.10;99.90
18260;DHT22;9256;52.236;5.712;2023-03-07T09:08:31;3.10;99.90
18260;DHT22;9256;52.236;5.712;2023-03-07T09:10:58;3.20;99.90
18260;DHT22;9256;52.236;5.712;2023-03-07T09:13:27;3.10;99.90
18260;DHT22;9256;52.236;5.712;2023-03-07T09:15:54;3.10;99.90
18260;DHT22;9256;52.236;5.712;2023-03-07T09:18:23;3.20;99.90
18260;DHT22;9256;52.236;5.712;2023-03-07T09:20:49;3.50;99.90
18260;DHT22;9256;52.236;5.712;2023-03-07T09:23:16;3.50;99.90
18260;DHT22;9256;52.236;5.712;2023-03-07T09:25:43;3.50;99.90
18260;DHT22;9256;52.236;5.712;2023-03-07T09:28:10;3.50;99.90
18260;DHT22;9256;52.236;5.712;2023-03-07T09:30:37;3.50;99.90
18260;DHT22;9256;52.236;5.712;2023-03-07T09:33:04;3.50;99.90
18260;DHT22;9256;52.236;5.712;2023-03-07T09:35:32;3.40;99.90
18260;DHT22;9256;52.236;5.712;2023-03-07T09:37:59;3.50;99.90
18260;DHT22;9256;52.236;5.712;2023-03-07T09:40:26;3.60;99.90
18260;DHT22;9256;52.236;5.712;2023-03-07T09:42:58;3.60;99.90
18260;DHT22;9256;52.236;5.712;2023-03-07T09:45:35;3.80;99.90
18260;DHT22;9256;52.236;5.712;2023-03-07T09:51:00;3.70;99.90
18260;DHT22;9256;52.236;5.712;2023-03-07T09:53:35;3.70;99.90
18260;DHT22;9256;52.236;5.712;2023-03-07T09:56:06;3.70;99.90
18260;DHT22;9256;52.236;5.712;2023-03-07T09:58:37;3.90;99.90
18260;DHT22;9256;52.236;5.712;2023-03-07T10:01:08;3.90;99.90
18260;DHT22;9256;52.236;5.712;2023-03-07T10:03:44;4.00;99.90
18260;DHT22;9256;52.236;5.712;2023-03-07T10:06:17;4.10;99.90
18260;DHT22;9256;52.236;5.712;2023-03-07T10:08:47;4.20;99.90
18260;DHT22;9256;52.236;5.712;2023-03-07T10:11:23;4.10;99.90
18260;DHT22;9256;52.236;5.712;2023-03-07T10:14:05;4.10;99.90
18260;DHT22;9256;52.236;5.712;2023-03-07T10:16:39;4.00;99.90
18260;DHT22;9256;52.236;5.712;2023-03-07T10:19:12;4.00;99.90
18260;DHT22;9256;52.236;5.712;2023-03-07T10:21:49;4.10;99.90
18260;DHT22;9256;52.236;5.712;2023-03-07T10:24:31;4.20;99.90
18260;DHT22;9256;52.236;5.712;2023-03-07T10:27:04;4.30;99.90
18260;DHT22;9256;52.236;5.712;2023-03-07T10:29:36;4.50;99.90
18260;DHT22;9256;52.236;5.712;2023-03-07T10:32:28;4.40;99.90
18260;DHT22;9256;52.236;5.712;2023-03-07T10:34:59;4.40;99.90
18260;DHT22;9256;52.236;5.712;2023-03-07T10:37:40;4.50;99.90
18260;DHT22;9256;52.236;5.712;2023-03-07T10:40:16;4.50;99.90
18260;DHT22;9256;52.236;5.712;2023-03-07T10:42:44;4.40;99.90
18260;DHT22;9256;52.236;5.712;2023-03-07T10:45:11;4.70;99.90
18260;DHT22;9256;52.236;5.712;2023-03-07T10:47:39;4.70;99.90
18260;DHT22;9256;52.236;5.712;2023-03-07T10:50:22;4.70;99.90
18260;DHT22;9256;52.236;5.712;2023-03-07T10:52:54;4.60;99.90
18260;DHT22;9256;52.236;5.712;2023-03-07T10:55:37;4.40;99.90
18260;DHT22;9256;52.236;5.712;2023-03-07T10:58:19;4.50;99.90
18260;DHT22;9256;52.236;5.712;2023-03-07T11:00:58;4.50;99.90
18260;DHT22;9256;52.236;5.712;2023-03-07T11:03:29;4.60;99.90
18260;DHT22;9256;52.236;5.712;2023-03-07T11:05:57;4.70;99.90
18260;DHT22;9256;52.236;5.712;2023-03-07T11:08:29;4.70;99.90
18260;DHT22;9256;52.236;5.712;2023-03-07T11:10:57;4.50;99.90
18260;DHT22;9256;52.236;5.712;2023-03-07T11:13:24;4.40;99.90
18260;DHT22;9256;52.236;5.712;2023-03-07T11:16:08;4.30;99.90
18260;DHT22;9256;52.236;5.712;2023-03-07T11:18:39;4.50;99.90
18260;DHT22;9256;52.236;5.712;2023-03-07T11:21:26;4.50;99.90
18260;DHT22;9256;52.236;5.712;2023-03-07T11:24:03;4.00;99.90
18260;DHT22;9256;52.236;5.712;2023-03-07T11:26:34;4.00;99.90
18260;DHT22;9256;52.236;5.712;2023-03-07T11:29:06;3.90;99.90
18260;DHT22;9256;52.236;5.712;2023-03-07T11:31:38;3.80;99.90
18260;DHT22;9256;52.236;5.712;2023-03-07T11:34:20;3.80;99.90
18260;DHT22;9256;52.236;5.712;2023-03-07T11:36:54;3.90;99.90
18260;DHT22;9256;52.236;5.712;2023-03-07T11:39:30;3.60;99.90
18260;DHT22;9256;52.236;5.712;2023-03-07T11:42:03;3.60;99.90
18260;DHT22;9256;52.236;5.712;2023-03-07T11:44:34;3.60;99.90
18260;DHT22;9256;52.236;5.712;2023-03-07T11:47:27;3.80;99.90
18260;DHT22;9256;52.236;5.712;2023-03-07T11:50:06;3.70;99.90
18260;DHT22;9256;52.236;5.712;2023-03-07T11:55:40;3.70;99.90
18260;DHT22;9256;52.236;5.712;2023-03-07T11:58:30;3.60;99.90
18260;DHT22;9256;52.236;5.712;2023-03-07T12:01:07;3.30;99.90
18260;DHT22;9256;52.236;5.712;2023-03-07T12:04:11;2.80;99.90
18260;DHT22;9256;52.236;5.712;2023-03-07T12:06:51;2.30;99.90
18260;DHT22;9256;52.236;5.712;2023-03-07T12:09:38;2.10;99.90
18260;DHT22;9256;52.236;5.712;2023-03-07T12:12:41;2.20;99.90
18260;DHT22;9256;52.236;5.712;2023-03-07T12:15:25;2.50;99.90
18260;DHT22;9256;52.236;5.712;2023-03-07T12:18:03;2.80;99.90
18260;DHT22;9256;52.236;5.712;2023-03-07T12:20:36;3.10;99.90
18260;DHT22;9256;52.236;5.712;2023-03-07T12:23:12;3.20;99.90
18260;DHT22;9256;52.236;5.712;2023-03-07T12:25:43;3.60;99.90
18260;DHT22;9256;52.236;5.712;2023-03-07T12:28:17;3.70;99.90
18260;DHT22;9256;52.236;5.712;2023-03-07T12:31:01;4.00;99.90
18260;DHT22;9256;52.236;5.712;2023-03-07T12:33:45;3.80;99.90
18260;DHT22;9256;52.236;5.712;2023-03-07T12:36:20;4.00;99.90
18260;DHT22;9256;52.236;5.712;2023-03-07T12:38:51;3.90;99.90
18260;DHT22;9256;52.236;5.712;2023-03-07T12:41:35;4.00;99.90
18260;DHT22;9256;52.236;5.712;2023-03-07T12:44:11;4.00;99.90
18260;DHT22;9256;52.236;5.712;2023-03-07T12:46:43;4.20;99.90
18260;DHT22;9256;52.236;5.712;2023-03-07T12:49:15;4.30;99.90
18260;DHT22;9256;52.236;5.712;2023-03-07T12:51:49;4.40;99.90
18260;DHT22;9256;52.236;5.712;2023-03-07T12:54:22;4.50;99.90
18260;DHT22;9256;52.236;5.712;2023-03-07T12:56:54;4.80;99.90
18260;DHT22;9256;52.236;5.712;2023-03-07T12:59:26;5.20;99.90
18260;DHT22;9256;52.236;5.712;2023-03-07T13:01:59;5.20;99.90
18260;DHT22;9256;52.236;5.712;2023-03-07T13:04:32;5.70;99.90
18260;DHT22;9256;52.236;5.712;2023-03-07T13:07:06;6.00;99.90
18260;DHT22;9256;52.236;5.712;2023-03-07T13:09:38;6.00;99.90
18260;DHT22;9256;52.236;5.712;2023-03-07T13:12:28;5.70;99.90
18260;DHT22;9256;52.236;5.712;2023-03-07T13:14:58;5.60;99.90
18260;DHT22;9256;52.236;5.712;2023-03-07T13:17:58;5.70;99.90
18260;DHT22;9256;52.236;5.712;2023-03-07T13:23:31;5.30;99.90
18260;DHT22;9256;52.236;5.712;2023-03-07T13:26:00;5.30;99.90
18260;DHT22;9256;52.236;5.712;2023-03-07T13:28:47;5.20;99.90
18260;DHT22;9256;52.236;5.712;2023-03-07T13:31:41;5.10;99.90
18260;DHT22;9256;52.236;5.712;2023-03-07T13:37:49;5.10;99.90
18260;DHT22;9256;52.236;5.712;2023-03-07T13:40:51;4.80;99.90
18260;DHT22;9256;52.236;5.712;2023-03-07T13:44:00;4.70;99.90
18260;DHT22;9256;52.236;5.712;2023-03-07T13:46:47;4.40;99.90
18260;DHT22;9256;52.236;5.712;2023-03-07T13:49:45;4.40;99.90
18260;DHT22;9256;52.236;5.712;2023-03-07T13:52:32;4.30;99.90
18260;DHT22;9256;52.236;5.712;2023-03-07T13:55:03;4.30;99.90
18260;DHT22;9256;52.236;5.712;2023-03-07T13:57:39;4.30;99.90
18260;DHT22;9256;52.236;5.712;2023-03-07T14:00:29;4.30;99.90
18260;DHT22;9256;52.236;5.712;2023-03-07T14:02:58;4.00;99.90
18260;DHT22;9256;52.236;5.712;2023-03-07T14:05:26;3.80;99.90
18260;DHT22;9256;52.236;5.712;2023-03-07T14:07:56;3.70;99.90
18260;DHT22;9256;52.236;5.712;2023-03-07T14:10:27;3.40;99.90
18260;DHT22;9256;52.236;5.712;2023-03-07T14:13:32;2.90;99.90
18260;DHT22;9256;52.236;5.712;2023-03-07T14:16:15;2.60;99.90
18260;DHT22;9256;52.236;5.712;2023-03-07T14:18:57;2.40;99.90
18260;DHT22;9256;52.236;5.712;2023-03-07T14:21:37;2.20;99.90
18260;DHT22;9256;52.236;5.712;2023-03-07T14:24:18;2.00;99.90
18260;DHT22;9256;52.236;5.712;2023-03-07T14:26:54;2.10;99.90
18260;DHT22;9256;52.236;5.712;2023-03-07T14:29:23;1.80;99.90
18260;DHT22;9256;52.236;5.712;2023-03-07T14:31:52;1.90;99.90
18260;DHT22;9256;52.236;5.712;2023-03-07T14:34:27;2.00;99.90
18260;DHT22;9256;52.236;5.712;2023-03-07T14:36:56;2.00;99.90
18260;DHT22;9256;52.236;5.712;2023-03-07T14:39:25;2.00;99.90
18260;DHT22;9256;52.236;5.712;2023-03-07T14:42:02;2.20;99.90
18260;DHT22;9256;52.236;5.712;2023-03-07T14:45:07;2.40;99.90
18260;DHT22;9256;52.236;5.712;2023-03-07T14:47:57;2.30;99.90
18260;DHT22;9256;52.236;5.712;2023-03-07T14:50:30;2.20;99.90
18260;DHT22;9256;52.236;5.712;2023-03-07T14:53:01;2.30;99.90
18260;DHT22;9256;52.236;5.712;2023-03-07T14:55:33;2.40;99.90
18260;DHT22;9256;52.236;5.712;2023-03-07T14:58:00;2.30;99.90
18260;DHT22;9256;52.236;5.712;2023-03-07T15:00:28;2.40;99.90
18260;DHT22;9256;52.236;5.712;2023-03-07T15:03:02;2.20;99.90
18260;DHT22;9256;52.236;5.712;2023-03-07T15:05:35;2.30;99.90
18260;DHT22;9256;52.236;5.712;2023-03-07T15:08:02;2.40;99.90
18260;DHT22;9256;52.236;5.712;2023-03-07T15:10:32;2.30;99.90
18260;DHT22;9256;52.236;5.712;2023-03-07T15:13:02;2.20;99.90
18260;DHT22;9256;52.236;5.712;2023-03-07T15:15:33;2.30;99.90
18260;DHT22;9256;52.236;5.712;2023-03-07T15:18:05;2.20;99.90
18260;DHT22;9256;52.236;5.712;2023-03-07T15:20:36;2.30;99.90
18260;DHT22;9256;52.236;5.712;2023-03-07T15:23:04;2.40;99.90
18260;DHT22;9256;52.236;5.712;2023-03-07T15:25:33;2.50;99.90
18260;DHT22;9256;52.236;5.712;2023-03-07T15:28:05;2.30;99.90
18260;DHT22;9256;52.236;5.712;2023-03-07T15:30:35;2.50;99.90
18260;DHT22;9256;52.236;5.712;2023-03-07T15:33:09;2.70;99.90
18260;DHT22;9256;52.236;5.712;2023-03-07T15:35:38;2.80;99.90
18260;DHT22;9256;52.236;5.712;2023-03-07T15:38:14;2.90;99.90
18260;DHT22;9256;52.236;5.712;2023-03-07T15:40:44;3.00;99.90
18260;DHT22;9256;52.236;5.712;2023-03-07T15:43:16;3.00;99.90
18260;DHT22;9256;52.236;5.712;2023-03-07T15:45:44;2.90;99.90
18260;DHT22;9256;52.236;5.712;2023-03-07T15:48:27;2.90;99.90
18260;DHT22;9256;52.236;5.712;2023-03-07T15:50:58;3.00;99.90
18260;DHT22;9256;52.236;5.712;2023-03-07T15:53:28;2.90;99.90
18260;DHT22;9256;52.236;5.712;2023-03-07T15:55:57;2.90;99.90
18260;DHT22;9256;52.236;5.712;2023-03-07T15:58:26;2.90;99.90
18260;DHT22;9256;52.236;5.712;2023-03-07T16:01:06;3.00;99.90
18260;DHT22;9256;52.236;5.712;2023-03-07T16:03:47;2.90;99.90
18260;DHT22;9256;52.236;5.712;2023-03-07T16:06:39;2.90;99.90
18260;DHT22;9256;52.236;5.712;2023-03-07T16:09:09;3.00;99.90
18260;DHT22;9256;52.236;5.712;2023-03-07T16:11:40;3.00;99.90
18260;DHT22;9256;52.236;5.712;2023-03-07T16:14:20;3.00;99.90
18260;DHT22;9256;52.236;5.712;2023-03-07T16:16:47;3.00;99.90
18260;DHT22;9256;52.236;5.712;2023-03-07T16:19:14;2.90;99.90
18260;DHT22;9256;52.236;5.712;2023-03-07T16:21:42;3.00;99.90
18260;DHT22;9256;52.236;5.712;2023-03-07T16:24:09;3.00;99.90
18260;DHT22;9256;52.236;5.712;2023-03-07T16:26:36;2.90;99.90
18260;DHT22;9256;52.236;5.712;2023-03-07T16:29:11;2.80;99.90
18260;DHT22;9256;52.236;5.712;2023-03-07T16:31:40;2.80;99.90
18260;DHT22;9256;52.236;5.712;2023-03-07T16:34:13;2.90;99.90
18260;DHT22;9256;52.236;5.712;2023-03-07T16:36:44;2.90;99.90
18260;DHT22;9256;52.236;5.712;2023-03-07T16:39:12;2.90;99.90
18260;DHT22;9256;52.236;5.712;2023-03-07T16:41:44;2.70;99.90